sensor_id;sensor_type;location;lat;lon;timestamp;P1;durP1;ratioP1;P2;durP2;ratioP2
31182;SDS011;17813;0.000;0.000;2023-03-19T00:00:45;15.40;;;10.87;;
31182;SDS011;17813;0.000;0.000;2023-03-19T00:03:12;15.10;;;12.37;;
31182;SDS011;17813;0.000;0.000;2023-03-19T00:05:39;12.53;;;11.23;;
31182;SDS011;17813;0.000;0.000;2023-03-19T00:08:06;15.33;;;11.37;;
31182;SDS011;17813;0.000;0.000;2023-03-19T00:10:36;14.40;;;10.77;;
31182;SDS011;17813;0.000;0.000;2023-03-19T00:13:04;14.53;;;10.93;;
31182;SDS011;17813;0.000;0.000;2023-03-19T00:15:31;11.90;;;9.87;;
31182;SDS011;17813;0.000;0.000;2023-03-19T00:17:58;16.80;;;10.57;;
31182;SDS011;17813;0.000;0.000;2023-03-19T00:20:26;15.87;;;10.03;;
31182;SDS011;17813;0.000;0.000;2023-03-19T00:22:53;13.70;;;10.13;;
31182;SDS011;17813;0.000;0.000;2023-03-19T00:25:20;13.67;;;10.47;;
31182;SDS011;17813;0.000;0.000;2023-03-19T00:27:47;14.67;;;10.37;;
31182;SDS011;17813;0.000;0.000;2023-03-19T00:30:14;13.70;;;10.13;;
31182;SDS011;17813;0.000;0.000;2023-03-19T00:32:41;12.40;;;10.13;;
31182;SDS011;17813;0.000;0.000;2023-03-19T00:35:09;16.63;;;11.00;;
31182;SDS011;17813;0.000;0.000;2023-03-19T00:37:36;11.30;;;9.97;;
31182;SDS011;17813;0.000;0.000;2023-03-19T00:40:03;16.73;;;10.70;;
31182;SDS011;17813;0.000;0.000;2023-03-19T00:42:31;15.03;;;10.60;;
31182;SDS011;17813;0.000;0.000;2023-03-19T00:44:59;14.60;;;10.60;;
31182;SDS011;17813;0.000;0.000;2023-03-19T00:47:26;14.07;;;10.70;;
31182;SDS011;17813;0.000;0.000;2023-03-19T00:49:53;15.27;;;10.40;;
31182;SDS011;17813;0.000;0.000;2023-03-19T00:52:20;15.10;;;10.40;;
31182;SDS011;17813;0.000;0.000;2023-03-19T00:54:47;12.97;;;10.63;;
31182;SDS011;17813;0.000;0.000;2023-03-19T00:57:14;14.13;;;10.80;;
31182;SDS011;17813;0.000;0.000;2023-03-19T00:59:41;11.60;;;9.80;;
31182;SDS011;17813;0.000;0.000;2023-03-19T01:02:08;13.53;;;10.43;;
31182;SDS011;17813;0.000;0.000;2023-03-19T01:04:35;12.03;;;10.37;;
31182;SDS011;17813;0.000;0.000;2023-03-19T01:07:05;13.10;;;9.50;;
31182;SDS011;17813;0.000;0.000;2023-03-19T01:09:32;14.77;;;10.30;;
31182;SDS011;17813;0.000;0.000;2023-03-19T01:12:00;12.90;;;10.13;;
31182;SDS011;17813;0.000;0.000;2023-03-19T01:14:30;17.57;;;10.70;;
31182;SDS011;17813;0.000;0.000;2023-03-19T01:16:57;12.27;;;9.67;;
31182;SDS011;17813;0.000;0.000;2023-03-19T01:19:24;12.90;;;9.37;;
31182;SDS011;17813;0.000;0.000;2023-03-19T01:21:51;12.97;;;9.93;;
31182;SDS011;17813;0.000;0.000;2023-03-19T01:24:18;13.50;;;10.57;;
31182;SDS011;17813;0.000;0.000;2023-03-19T01:26:45;11.83;;;9.70;;
31182;SDS011;17813;0.000;0.000;2023-03-19T01:29:12;14.37;;;10.87;;
31182;SDS011;17813;0.000;0.000;2023-03-19T01:31:39;15.47;;;10.37;;
31182;SDS011;17813;0.000;0.000;2023-03-19T01:34:06;13.77;;;10.93;;
31182;SDS011;17813;0.000;0.000;2023-03-19T01:36:33;12.07;;;9.67;;
31182;SDS011;17813;0.000;0.000;2023-03-19T01:39:01;18.03;;;11.17;;
31182;SDS011;17813;0.000;0.000;2023-03-19T01:41:28;19.93;;;10.93;;
31182;SDS011;17813;0.000;0.000;2023-03-19T01:43:55;15.47;;;11.40;;
31182;SDS011;17813;0.000;0.000;2023-03-19T01:46:32;12.57;;;10.63;;
31182;SDS011;17813;0.000;0.000;2023-03-19T01:49:04;14.70;;;10.90;;
31182;SDS011;17813;0.000;0.000;2023-03-19T01:51:34;13.80;;;10.20;;
31182;SDS011;17813;0.000;0.000;2023-03-19T01:54:12;13.23;;;9.83;;
31182;SDS011;17813;0.000;0.000;2023-03-19T01:56:43;13.03;;;10.50;;
31182;SDS011;17813;0.000;0.000;2023-03-19T01:59:18;18.17;;;10.63;;
31182;SDS011;17813;0.000;0.000;2023-03-19T02:02:09;13.27;;;10.57;;
31182;SDS011;17813;0.000;0.000;2023-03-19T02:05:00;12.07;;;9.53;;
31182;SDS011;17813;0.000;0.000;2023-03-19T02:07:36;15.83;;;10.73;;
31182;SDS011;17813;0.000;0.000;2023-03-19T02:10:11;14.47;;;10.03;;
31182;SDS011;17813;0.000;0.000;2023-03-19T02:12:41;15.53;;;10.47;;
31182;SDS011;17813;0.000;0.000;2023-03-19T02:15:08;13.37;;;10.10;;
31182;SDS011;17813;0.000;0.000;2023-03-19T02:17:36;15.07;;;9.90;;
31182;SDS011;17813;0.000;0.000;2023-03-19T02:20:21;16.97;;;10.67;;
31182;SDS011;17813;0.000;0.000;2023-03-19T02:26:04;13.53;;;10.17;;
31182;SDS011;17813;0.000;0.000;2023-03-19T02:28:33;12.80;;;9.57;;
31182;SDS011;17813;0.000;0.000;2023-03-19T02:31:03;13.70;;;9.80;;
31182;SDS011;17813;0.000;0.000;2023-03-19T02:33:30;13.10;;;9.67;;
31182;SDS011;17813;0.000;0.000;2023-03-19T02:35:57;13.93;;;10.27;;
31182;SDS011;17813;0.000;0.000;2023-03-19T02:38:24;13.07;;;9.43;;
31182;SDS011;17813;0.000;0.000;2023-03-19T02:40:57;12.40;;;9.97;;
31182;SDS011;17813;0.000;0.000;2023-03-19T02:43:25;10.57;;;9.37;;
31182;SDS011;17813;0.000;0.000;2023-03-19T02:45:54;13.83;;;8.97;;
31182;SDS011;17813;0.000;0.000;2023-03-19T02:48:21;10.87;;;9.73;;
31182;SDS011;17813;0.000;0.000;2023-03-19T02:50:49;12.60;;;9.87;;
31182;SDS011;17813;0.000;0.000;2023-03-19T02:53:16;10.00;;;8.57;;
31182;SDS011;17813;0.000;0.000;2023-03-19T02:55:43;11.30;;;8.77;;
31182;SDS011;17813;0.000;0.000;2023-03-19T02:58:11;12.10;;;9.50;;
31182;SDS011;17813;0.000;0.000;2023-03-19T03:00:38;10.80;;;9.70;;
31182;SDS011;17813;0.000;0.000;2023-03-19T03:03:05;11.37;;;9.60;;
31182;SDS011;17813;0.000;0.000;2023-03-19T03:05:33;12.87;;;9.80;;
31182;SDS011;17813;0.000;0.000;2023-03-19T03:08:01;14.47;;;10.10;;
31182;SDS011;17813;0.000;0.000;2023-03-19T03:10:30;14.10;;;10.03;;
31182;SDS011;17813;0.000;0.000;2023-03-19T03:12:58;12.43;;;9.97;;
31182;SDS011;17813;0.000;0.000;2023-03-19T03:15:25;11.90;;;9.97;;
31182;SDS011;17813;0.000;0.000;2023-03-19T03:17:52;10.77;;;9.37;;
31182;SDS011;17813;0.000;0.000;2023-03-19T03:20:21;10.93;;;9.37;;
31182;SDS011;17813;0.000;0.000;2023-03-19T03:22:47;10.57;;;9.07;;
31182;SDS011;17813;0.000;0.000;2023-03-19T03:25:15;11.63;;;9.40;;
31182;SDS011;17813;0.000;0.000;2023-03-19T03:27:41;12.83;;;9.63;;
31182;SDS011;17813;0.000;0.000;2023-03-19T03:30:09;12.83;;;10.63;;
31182;SDS011;17813;0.000;0.000;2023-03-19T03:32:36;12.73;;;9.07;;
31182;SDS011;17813;0.000;0.000;2023-03-19T03:35:04;10.03;;;9.00;;
31182;SDS011;17813;0.000;0.000;2023-03-19T03:37:32;11.27;;;9.17;;
31182;SDS011;17813;0.000;0.000;2023-03-19T03:40:01;10.30;;;9.13;;
31182;SDS011;17813;0.000;0.000;2023-03-19T03:42:36;13.13;;;9.77;;
31182;SDS011;17813;0.000;0.000;2023-03-19T03:45:04;10.70;;;9.60;;
31182;SDS011;17813;0.000;0.000;2023-03-19T03:47:31;12.00;;;9.37;;
31182;SDS011;17813;0.000;0.000;2023-03-19T03:49:58;12.23;;;10.07;;
31182;SDS011;17813;0.000;0.000;2023-03-19T03:52:26;12.10;;;10.23;;
31182;SDS011;17813;0.000;0.000;2023-03-19T03:54:56;11.87;;;9.90;;
31182;SDS011;17813;0.000;0.000;2023-03-19T03:57:23;11.00;;;9.33;;
31182;SDS011;17813;0.000;0.000;2023-03-19T03:59:51;12.53;;;10.20;;
31182;SDS011;17813;0.000;0.000;2023-03-19T04:02:22;11.67;;;9.63;;
31182;SDS011;17813;0.000;0.000;2023-03-19T04:04:49;12.30;;;9.47;;
31182;SDS011;17813;0.000;0.000;2023-03-19T04:07:16;12.23;;;9.73;;
31182;SDS011;17813;0.000;0.000;2023-03-19T04:09:43;11.10;;;9.83;;
31182;SDS011;17813;0.000;0.000;2023-03-19T04:12:11;10.93;;;9.37;;
31182;SDS011;17813;0.000;0.000;2023-03-19T04:14:38;11.37;;;10.17;;
31182;SDS011;17813;0.000;0.000;2023-03-19T04:17:06;10.57;;;9.10;;
31182;SDS011;17813;0.000;0.000;2023-03-19T04:19:33;10.50;;;9.17;;
31182;SDS011;17813;0.000;0.000;2023-03-19T04:21:59;12.47;;;9.73;;
31182;SDS011;17813;0.000;0.000;2023-03-19T04:24:28;13.07;;;10.27;;
31182;SDS011;17813;0.000;0.000;2023-03-19T04:26:56;10.77;;;9.67;;
31182;SDS011;17813;0.000;0.000;2023-03-19T04:29:23;12.27;;;10.13;;
31182;SDS011;17813;0.000;0.000;2023-03-19T04:31:50;12.53;;;10.03;;
31182;SDS011;17813;0.000;0.000;2023-03-19T04:34:17;13.60;;;10.37;;
31182;SDS011;17813;0.000;0.000;2023-03-19T04:36:44;12.23;;;10.30;;
31182;SDS011;17813;0.000;0.000;2023-03-19T04:39:11;11.63;;;9.97;;
31182;SDS011;17813;0.000;0.000;2023-03-19T04:41:39;11.17;;;9.57;;
31182;SDS011;17813;0.000;0.000;2023-03-19T04:44:06;12.40;;;9.83;;
31182;SDS011;17813;0.000;0.000;2023-03-19T04:46:33;10.23;;;9.13;;
31182;SDS011;17813;0.000;0.000;2023-03-19T04:49:00;10.90;;;9.80;;
31182;SDS011;17813;0.000;0.000;2023-03-19T04:51:32;10.63;;;9.53;;
31182;SDS011;17813;0.000;0.000;2023-03-19T04:53:59;10.10;;;9.00;;
31182;SDS011;17813;0.000;0.000;2023-03-19T04:56:26;11.20;;;8.97;;
31182;SDS011;17813;0.000;0.000;2023-03-19T04:58:53;10.43;;;8.90;;
31182;SDS011;17813;0.000;0.000;2023-03-19T05:01:20;11.90;;;10.13;;
31182;SDS011;17813;0.000;0.000;2023-03-19T05:03:48;11.33;;;9.63;;
31182;SDS011;17813;0.000;0.000;2023-03-19T05:06:15;14.20;;;10.10;;
31182;SDS011;17813;0.000;0.000;2023-03-19T05:08:42;10.70;;;9.23;;
31182;SDS011;17813;0.000;0.000;2023-03-19T05:11:09;12.03;;;9.90;;
31182;SDS011;17813;0.000;0.000;2023-03-19T05:13:39;12.17;;;9.77;;
31182;SDS011;17813;0.000;0.000;2023-03-19T05:16:06;12.00;;;9.13;;
31182;SDS011;17813;0.000;0.000;2023-03-19T05:18:34;10.87;;;9.10;;
31182;SDS011;17813;0.000;0.000;2023-03-19T05:21:01;12.20;;;9.53;;
31182;SDS011;17813;0.000;0.000;2023-03-19T05:23:29;11.87;;;9.73;;
31182;SDS011;17813;0.000;0.000;2023-03-19T05:25:57;12.40;;;10.30;;
31182;SDS011;17813;0.000;0.000;2023-03-19T05:28:26;12.10;;;9.80;;
31182;SDS011;17813;0.000;0.000;2023-03-19T05:30:53;11.77;;;9.60;;
31182;SDS011;17813;0.000;0.000;2023-03-19T05:33:20;10.53;;;9.10;;
31182;SDS011;17813;0.000;0.000;2023-03-19T05:35:48;12.93;;;9.53;;
31182;SDS011;17813;0.000;0.000;2023-03-19T05:38:18;12.03;;;10.10;;
31182;SDS011;17813;0.000;0.000;2023-03-19T05:40:45;11.77;;;10.17;;
31182;SDS011;17813;0.000;0.000;2023-03-19T05:43:12;12.23;;;10.27;;
31182;SDS011;17813;0.000;0.000;2023-03-19T05:45:39;11.97;;;10.10;;
31182;SDS011;17813;0.000;0.000;2023-03-19T05:48:08;13.43;;;10.03;;
31182;SDS011;17813;0.000;0.000;2023-03-19T05:50:35;12.03;;;10.53;;
31182;SDS011;17813;0.000;0.000;2023-03-19T05:53:03;13.13;;;10.63;;
31182;SDS011;17813;0.000;0.000;2023-03-19T05:55:30;12.00;;;9.83;;
31182;SDS011;17813;0.000;0.000;2023-03-19T05:57:57;12.77;;;10.17;;
31182;SDS011;17813;0.000;0.000;2023-03-19T06:00:24;12.53;;;10.40;;
31182;SDS011;17813;0.000;0.000;2023-03-19T06:02:51;14.43;;;10.00;;
31182;SDS011;17813;0.000;0.000;2023-03-19T06:05:19;15.93;;;11.00;;
31182;SDS011;17813;0.000;0.000;2023-03-19T06:07:46;13.37;;;9.97;;
31182;SDS011;17813;0.000;0.000;2023-03-19T06:10:13;19.00;;;10.90;;
31182;SDS011;17813;0.000;0.000;2023-03-19T06:12:40;12.10;;;9.83;;
31182;SDS011;17813;0.000;0.000;2023-03-19T06:15:07;11.87;;;10.37;;
31182;SDS011;17813;0.000;0.000;2023-03-19T06:17:38;12.33;;;10.17;;
31182;SDS011;17813;0.000;0.000;2023-03-19T06:20:05;16.17;;;10.77;;
31182;SDS011;17813;0.000;0.000;2023-03-19T06:22:33;15.60;;;11.07;;
31182;SDS011;17813;0.000;0.000;2023-03-19T06:25:03;14.67;;;10.13;;
31182;SDS011;17813;0.000;0.000;2023-03-19T06:27:32;12.07;;;9.83;;
31182;SDS011;17813;0.000;0.000;2023-03-19T06:29:59;10.80;;;9.70;;
31182;SDS011;17813;0.000;0.000;2023-03-19T06:32:26;11.37;;;9.80;;
31182;SDS011;17813;0.000;0.000;2023-03-19T06:34:53;14.13;;;11.07;;
31182;SDS011;17813;0.000;0.000;2023-03-19T06:37:21;15.37;;;10.60;;
31182;SDS011;17813;0.000;0.000;2023-03-19T06:39:48;13.33;;;10.70;;
31182;SDS011;17813;0.000;0.000;2023-03-19T06:42:15;13.57;;;10.40;;
31182;SDS011;17813;0.000;0.000;2023-03-19T06:44:43;12.73;;;11.03;;
31182;SDS011;17813;0.000;0.000;2023-03-19T06:47:10;13.57;;;10.70;;
31182;SDS011;17813;0.000;0.000;2023-03-19T06:49:39;13.40;;;9.93;;
31182;SDS011;17813;0.000;0.000;2023-03-19T06:52:07;11.23;;;10.00;;
31182;SDS011;17813;0.000;0.000;2023-03-19T06:54:35;12.73;;;10.17;;
31182;SDS011;17813;0.000;0.000;2023-03-19T06:57:02;11.07;;;9.57;;
31182;SDS011;17813;0.000;0.000;2023-03-19T06:59:32;11.37;;;9.60;;
31182;SDS011;17813;0.000;0.000;2023-03-19T07:01:59;11.50;;;9.30;;
31182;SDS011;17813;0.000;0.000;2023-03-19T07:04:26;11.90;;;9.43;;
31182;SDS011;17813;0.000;0.000;2023-03-19T07:06:54;13.53;;;10.27;;
31182;SDS011;17813;0.000;0.000;2023-03-19T07:09:21;13.63;;;10.07;;
31182;SDS011;17813;0.000;0.000;2023-03-19T07:11:48;12.47;;;9.90;;
31182;SDS011;17813;0.000;0.000;2023-03-19T07:14:15;14.17;;;10.30;;
31182;SDS011;17813;0.000;0.000;2023-03-19T07:16:44;11.43;;;9.30;;
31182;SDS011;17813;0.000;0.000;2023-03-19T07:19:11;11.63;;;10.37;;
31182;SDS011;17813;0.000;0.000;2023-03-19T07:21:38;12.77;;;10.30;;
31182;SDS011;17813;0.000;0.000;2023-03-19T07:24:06;14.40;;;10.00;;
31182;SDS011;17813;0.000;0.000;2023-03-19T07:26:33;13.73;;;9.63;;
31182;SDS011;17813;0.000;0.000;2023-03-19T07:29:00;12.27;;;10.10;;
31182;SDS011;17813;0.000;0.000;2023-03-19T07:31:27;13.60;;;9.50;;
31182;SDS011;17813;0.000;0.000;2023-03-19T07:33:54;10.27;;;9.20;;
31182;SDS011;17813;0.000;0.000;2023-03-19T07:36:21;10.27;;;9.13;;
31182;SDS011;17813;0.000;0.000;2023-03-19T07:38:50;12.63;;;8.80;;
31182;SDS011;17813;0.000;0.000;2023-03-19T07:41:17;10.47;;;8.70;;
31182;SDS011;17813;0.000;0.000;2023-03-19T07:43:44;10.07;;;8.47;;
31182;SDS011;17813;0.000;0.000;2023-03-19T07:46:11;10.50;;;8.68;;
31182;SDS011;17813;0.000;0.000;2023-03-19T07:48:38;10.60;;;8.00;;
31182;SDS011;17813;0.000;0.000;2023-03-19T07:51:05;9.90;;;8.45;;
31182;SDS011;17813;0.000;0.000;2023-03-19T07:53:35;11.68;;;8.60;;
31182;SDS011;17813;0.000;0.000;2023-03-19T07:56:03;9.73;;;8.35;;
31182;SDS011;17813;0.000;0.000;2023-03-19T07:58:31;8.73;;;7.85;;
31182;SDS011;17813;0.000;0.000;2023-03-19T08:00:58;10.18;;;8.23;;
31182;SDS011;17813;0.000;0.000;2023-03-19T08:03:25;8.82;;;7.93;;
31182;SDS011;17813;0.000;0.000;2023-03-19T08:05:52;9.05;;;8.15;;
31182;SDS011;17813;0.000;0.000;2023-03-19T08:08:19;10.48;;;7.65;;
31182;SDS011;17813;0.000;0.000;2023-03-19T08:10:46;9.77;;;7.80;;
31182;SDS011;17813;0.000;0.000;2023-03-19T08:13:18;9.52;;;8.23;;
31182;SDS011;17813;0.000;0.000;2023-03-19T08:15:45;10.30;;;7.30;;
31182;SDS011;17813;0.000;0.000;2023-03-19T08:18:12;8.73;;;7.47;;
31182;SDS011;17813;0.000;0.000;2023-03-19T08:20:39;9.52;;;7.75;;
31182;SDS011;17813;0.000;0.000;2023-03-19T08:23:06;8.38;;;7.57;;
31182;SDS011;17813;0.000;0.000;2023-03-19T08:25:33;8.57;;;7.50;;
31182;SDS011;17813;0.000;0.000;2023-03-19T08:28:00;8.02;;;7.22;;
31182;SDS011;17813;0.000;0.000;2023-03-19T08:30:28;9.50;;;7.57;;
31182;SDS011;17813;0.000;0.000;2023-03-19T08:32:56;8.40;;;7.10;;
31182;SDS011;17813;0.000;0.000;2023-03-19T08:35:23;8.00;;;7.20;;
31182;SDS011;17813;0.000;0.000;2023-03-19T08:37:53;9.05;;;7.10;;
31182;SDS011;17813;0.000;0.000;2023-03-19T08:40:21;8.10;;;6.95;;
31182;SDS011;17813;0.000;0.000;2023-03-19T08:42:48;8.07;;;6.65;;
31182;SDS011;17813;0.000;0.000;2023-03-19T08:45:34;8.05;;;6.30;;
31182;SDS011;17813;0.000;0.000;2023-03-19T08:48:04;7.43;;;6.20;;
31182;SDS011;17813;0.000;0.000;2023-03-19T08:50:31;7.73;;;6.60;;
31182;SDS011;17813;0.000;0.000;2023-03-19T08:52:58;6.47;;;5.83;;
31182;SDS011;17813;0.000;0.000;2023-03-19T08:55:25;7.13;;;6.40;;
31182;SDS011;17813;0.000;0.000;2023-03-19T08:57:57;7.30;;;6.00;;
31182;SDS011;17813;0.000;0.000;2023-03-19T09:00:25;8.17;;;6.33;;
31182;SDS011;17813;0.000;0.000;2023-03-19T09:02:54;7.17;;;6.27;;
31182;SDS011;17813;0.000;0.000;2023-03-19T09:05:21;9.37;;;7.03;;
31182;SDS011;17813;0.000;0.000;2023-03-19T09:07:52;7.07;;;6.30;;
31182;SDS011;17813;0.000;0.000;2023-03-19T09:10:19;7.03;;;6.13;;
31182;SDS011;17813;0.000;0.000;2023-03-19T09:12:46;6.77;;;6.07;;
31182;SDS011;17813;0.000;0.000;2023-03-19T09:15:15;7.80;;;5.97;;
31182;SDS011;17813;0.000;0.000;2023-03-19T09:17:41;7.73;;;6.20;;
31182;SDS011;17813;0.000;0.000;2023-03-19T09:20:09;8.30;;;6.33;;
31182;SDS011;17813;0.000;0.000;2023-03-19T09:22:36;6.70;;;6.00;;
31182;SDS011;17813;0.000;0.000;2023-03-19T09:25:03;7.50;;;6.15;;
31182;SDS011;17813;0.000;0.000;2023-03-19T09:27:32;7.73;;;5.17;;
31182;SDS011;17813;0.000;0.000;2023-03-19T09:30:01;5.07;;;4.57;;
31182;SDS011;17813;0.000;0.000;2023-03-19T09:32:28;6.00;;;4.80;;
31182;SDS011;17813;0.000;0.000;2023-03-19T09:34:56;5.50;;;4.90;;
31182;SDS011;17813;0.000;0.000;2023-03-19T09:37:23;6.00;;;4.63;;
31182;SDS011;17813;0.000;0.000;2023-03-19T09:39:51;5.53;;;5.03;;
31182;SDS011;17813;0.000;0.000;2023-03-19T09:45:03;5.38;;;4.28;;
31182;SDS011;17813;0.000;0.000;2023-03-19T09:47:37;4.70;;;3.80;;
31182;SDS011;17813;0.000;0.000;2023-03-19T09:50:23;7.32;;;4.00;;
31182;SDS011;17813;0.000;0.000;2023-03-19T09:56:04;4.35;;;3.90;;
31182;SDS011;17813;0.000;0.000;2023-03-19T09:58:37;4.65;;;3.40;;
31182;SDS011;17813;0.000;0.000;2023-03-19T10:01:04;3.53;;;3.00;;
31182;SDS011;17813;0.000;0.000;2023-03-19T10:04:14;3.22;;;2.70;;
31182;SDS011;17813;0.000;0.000;2023-03-19T10:15:32;3.05;;;2.53;;
31182;SDS011;17813;0.000;0.000;2023-03-19T10:18:09;3.13;;;2.83;;
31182;SDS011;17813;0.000;0.000;2023-03-19T10:25:59;3.97;;;3.30;;
31182;SDS011;17813;0.000;0.000;2023-03-19T10:28:30;2.65;;;2.40;;
31182;SDS011;17813;0.000;0.000;2023-03-19T10:33:44;2.70;;;1.80;;
31182;SDS011;17813;0.000;0.000;2023-03-19T10:36:29;3.55;;;2.10;;
31182;SDS011;17813;0.000;0.000;2023-03-19T10:39:01;1.77;;;1.67;;
31182;SDS011;17813;0.000;0.000;2023-03-19T10:47:09;3.17;;;2.70;;
31182;SDS011;17813;0.000;0.000;2023-03-19T10:49:44;2.22;;;1.85;;
31182;SDS011;17813;0.000;0.000;2023-03-19T10:54:53;2.33;;;1.85;;
31182;SDS011;17813;0.000;0.000;2023-03-19T10:57:25;3.00;;;1.88;;
31182;SDS011;17813;0.000;0.000;2023-03-19T11:00:14;1.75;;;1.60;;
31182;SDS011;17813;0.000;0.000;2023-03-19T11:02:50;1.70;;;1.60;;
31182;SDS011;17813;0.000;0.000;2023-03-19T11:05:23;2.03;;;1.80;;
31182;SDS011;17813;0.000;0.000;2023-03-19T11:10:29;2.88;;;1.90;;
31182;SDS011;17813;0.000;0.000;2023-03-19T11:15:36;3.15;;;2.00;;
31182;SDS011;17813;0.000;0.000;2023-03-19T11:18:23;1.42;;;1.25;;
31182;SDS011;17813;0.000;0.000;2023-03-19T11:20:56;2.85;;;1.50;;
31182;SDS011;17813;0.000;0.000;2023-03-19T11:23:27;1.67;;;1.40;;
31182;SDS011;17813;0.000;0.000;2023-03-19T11:26:00;2.40;;;1.58;;
31182;SDS011;17813;0.000;0.000;2023-03-19T11:28:28;2.80;;;1.70;;
31182;SDS011;17813;0.000;0.000;2023-03-19T11:31:01;2.20;;;1.73;;
31182;SDS011;17813;0.000;0.000;2023-03-19T11:34:00;2.40;;;1.90;;
31182;SDS011;17813;0.000;0.000;2023-03-19T11:44:50;2.65;;;2.17;;
31182;SDS011;17813;0.000;0.000;2023-03-19T11:50:10;2.30;;;2.10;;
31182;SDS011;17813;0.000;0.000;2023-03-19T11:53:00;2.20;;;1.92;;
31182;SDS011;17813;0.000;0.000;2023-03-19T12:02:03;2.27;;;1.80;;
31182;SDS011;17813;0.000;0.000;2023-03-19T12:11:51;2.20;;;1.83;;
31182;SDS011;17813;0.000;0.000;2023-03-19T12:17:51;1.90;;;1.70;;
31182;SDS011;17813;0.000;0.000;2023-03-19T12:20:31;1.97;;;1.77;;
31182;SDS011;17813;0.000;0.000;2023-03-19T12:23:28;2.53;;;1.87;;
31182;SDS011;17813;0.000;0.000;2023-03-19T12:26:16;2.20;;;1.77;;
31182;SDS011;17813;0.000;0.000;2023-03-19T12:28:54;2.80;;;1.73;;
31182;SDS011;17813;0.000;0.000;2023-03-19T12:39:52;2.30;;;1.80;;
31182;SDS011;17813;0.000;0.000;2023-03-19T12:42:36;2.37;;;1.70;;
31182;SDS011;17813;0.000;0.000;2023-03-19T12:45:28;2.63;;;1.80;;
31182;SDS011;17813;0.000;0.000;2023-03-19T12:48:11;2.60;;;2.40;;
31182;SDS011;17813;0.000;0.000;2023-03-19T12:50:49;2.37;;;1.90;;
31182;SDS011;17813;0.000;0.000;2023-03-19T12:56:23;3.63;;;2.00;;
31182;SDS011;17813;0.000;0.000;2023-03-19T12:59:15;2.60;;;2.20;;
31182;SDS011;17813;0.000;0.000;2023-03-19T13:01:58;3.70;;;2.40;;
31182;SDS011;17813;0.000;0.000;2023-03-19T13:04:39;2.13;;;1.93;;
31182;SDS011;17813;0.000;0.000;2023-03-19T13:07:48;2.40;;;2.20;;
31182;SDS011;17813;0.000;0.000;2023-03-19T13:10:29;3.17;;;2.63;;
31182;SDS011;17813;0.000;0.000;2023-03-19T13:12:59;3.07;;;2.03;;
31182;SDS011;17813;0.000;0.000;2023-03-19T13:15:37;4.30;;;2.00;;
31182;SDS011;17813;0.000;0.000;2023-03-19T13:23:51;2.13;;;1.80;;
31182;SDS011;17813;0.000;0.000;2023-03-19T13:27:03;1.87;;;1.53;;
31182;SDS011;17813;0.000;0.000;2023-03-19T13:29:35;1.67;;;1.57;;
31182;SDS011;17813;0.000;0.000;2023-03-19T13:32:05;1.80;;;1.70;;
31182;SDS011;17813;0.000;0.000;2023-03-19T13:34:35;2.00;;;1.80;;
31182;SDS011;17813;0.000;0.000;2023-03-19T13:37:18;2.10;;;1.80;;
31182;SDS011;17813;0.000;0.000;2023-03-19T13:39:48;2.00;;;1.70;;
31182;SDS011;17813;0.000;0.000;2023-03-19T13:45:26;2.67;;;1.90;;
31182;SDS011;17813;0.000;0.000;2023-03-19T13:47:53;2.17;;;1.93;;
31182;SDS011;17813;0.000;0.000;2023-03-19T13:50:26;2.30;;;2.10;;
31182;SDS011;17813;0.000;0.000;2023-03-19T13:56:01;2.87;;;2.20;;
31182;SDS011;17813;0.000;0.000;2023-03-19T13:58:30;2.80;;;1.97;;
31182;SDS011;17813;0.000;0.000;2023-03-19T14:06:45;2.37;;;2.10;;
31182;SDS011;17813;0.000;0.000;2023-03-19T14:14:58;2.33;;;2.07;;
31182;SDS011;17813;0.000;0.000;2023-03-19T14:22:34;2.47;;;2.00;;
31182;SDS011;17813;0.000;0.000;2023-03-19T14:25:18;3.60;;;2.20;;
31182;SDS011;17813;0.000;0.000;2023-03-19T14:27:47;5.17;;;2.43;;
31182;SDS011;17813;0.000;0.000;2023-03-19T14:36:11;2.50;;;2.30;;
31182;SDS011;17813;0.000;0.000;2023-03-19T14:38:49;3.33;;;2.30;;
31182;SDS011;17813;0.000;0.000;2023-03-19T14:41:24;2.83;;;2.50;;
31182;SDS011;17813;0.000;0.000;2023-03-19T14:52:56;2.97;;;2.40;;
31182;SDS011;17813;0.000;0.000;2023-03-19T14:55:51;3.23;;;2.50;;
31182;SDS011;17813;0.000;0.000;2023-03-19T14:58:19;3.33;;;2.30;;
31182;SDS011;17813;0.000;0.000;2023-03-19T15:00:50;3.10;;;2.40;;
31182;SDS011;17813;0.000;0.000;2023-03-19T15:05:48;2.57;;;2.20;;
31182;SDS011;17813;0.000;0.000;2023-03-19T15:08:21;2.43;;;2.20;;
31182;SDS011;17813;0.000;0.000;2023-03-19T15:10:56;2.60;;;2.00;;
31182;SDS011;17813;0.000;0.000;2023-03-19T15:19:21;2.57;;;2.07;;
31182;SDS011;17813;0.000;0.000;2023-03-19T15:22:01;2.30;;;2.10;;
31182;SDS011;17813;0.000;0.000;2023-03-19T15:24:50;2.33;;;2.13;;
31182;SDS011;17813;0.000;0.000;2023-03-19T15:29:48;2.57;;;2.37;;
31182;SDS011;17813;0.000;0.000;2023-03-19T15:32:29;2.80;;;2.27;;
31182;SDS011;17813;0.000;0.000;2023-03-19T15:35:02;2.93;;;2.30;;
31182;SDS011;17813;0.000;0.000;2023-03-19T15:37:32;2.83;;;2.37;;
31182;SDS011;17813;0.000;0.000;2023-03-19T15:40:07;3.37;;;2.50;;
31182;SDS011;17813;0.000;0.000;2023-03-19T15:42:38;2.80;;;2.23;;
31182;SDS011;17813;0.000;0.000;2023-03-19T15:45:08;3.17;;;2.50;;
31182;SDS011;17813;0.000;0.000;2023-03-19T15:47:39;2.60;;;2.40;;
31182;SDS011;17813;0.000;0.000;2023-03-19T15:50:14;3.30;;;2.40;;
31182;SDS011;17813;0.000;0.000;2023-03-19T15:52:45;2.60;;;2.40;;
31182;SDS011;17813;0.000;0.000;2023-03-19T15:55:17;2.40;;;2.20;;
31182;SDS011;17813;0.000;0.000;2023-03-19T15:57:46;2.80;;;2.60;;
31182;SDS011;17813;0.000;0.000;2023-03-19T16:00:15;2.53;;;2.33;;
31182;SDS011;17813;0.000;0.000;2023-03-19T16:02:45;2.40;;;2.17;;
31182;SDS011;17813;0.000;0.000;2023-03-19T16:05:22;2.90;;;2.70;;
31182;SDS011;17813;0.000;0.000;2023-03-19T16:08:00;2.00;;;1.90;;
31182;SDS011;17813;0.000;0.000;2023-03-19T16:10:35;2.20;;;2.00;;
31182;SDS011;17813;0.000;0.000;2023-03-19T16:13:25;2.77;;;2.10;;
31182;SDS011;17813;0.000;0.000;2023-03-19T16:16:04;2.90;;;2.20;;
31182;SDS011;17813;0.000;0.000;2023-03-19T16:18:41;2.70;;;2.10;;
31182;SDS011;17813;0.000;0.000;2023-03-19T16:21:28;2.33;;;2.13;;
31182;SDS011;17813;0.000;0.000;2023-03-19T16:24:08;6.20;;;2.77;;
31182;SDS011;17813;0.000;0.000;2023-03-19T16:27:00;3.53;;;2.50;;
31182;SDS011;17813;0.000;0.000;2023-03-19T16:29:37;3.53;;;2.43;;
31182;SDS011;17813;0.000;0.000;2023-03-19T16:32:17;2.60;;;2.40;;
31182;SDS011;17813;0.000;0.000;2023-03-19T16:45:40;2.90;;;2.13;;
31182;SDS011;17813;0.000;0.000;2023-03-19T16:47:56;2.13;;;1.93;;
31182;SDS011;17813;0.000;0.000;2023-03-19T16:50:29;2.23;;;2.03;;
31182;SDS011;17813;0.000;0.000;2023-03-19T16:53:24;2.57;;;2.27;;
31182;SDS011;17813;0.000;0.000;2023-03-19T16:55:55;3.03;;;2.13;;
31182;SDS011;17813;0.000;0.000;2023-03-19T17:01:14;2.77;;;2.17;;
31182;SDS011;17813;0.000;0.000;2023-03-19T17:03:44;3.43;;;2.17;;
31182;SDS011;17813;0.000;0.000;2023-03-19T17:06:12;3.10;;;2.17;;
31182;SDS011;17813;0.000;0.000;2023-03-19T17:08:40;3.60;;;2.80;;
31182;SDS011;17813;0.000;0.000;2023-03-19T17:11:25;3.23;;;2.30;;
31182;SDS011;17813;0.000;0.000;2023-03-19T17:13:56;2.90;;;2.30;;
31182;SDS011;17813;0.000;0.000;2023-03-19T17:16:25;2.93;;;2.20;;
31182;SDS011;17813;0.000;0.000;2023-03-19T17:18:54;2.73;;;2.43;;
31182;SDS011;17813;0.000;0.000;2023-03-19T17:21:24;2.50;;;2.30;;
31182;SDS011;17813;0.000;0.000;2023-03-19T17:23:54;2.23;;;2.03;;
31182;SDS011;17813;0.000;0.000;2023-03-19T17:26:23;3.40;;;2.50;;
31182;SDS011;17813;0.000;0.000;2023-03-19T17:28:54;3.67;;;2.30;;
31182;SDS011;17813;0.000;0.000;2023-03-19T17:31:29;4.13;;;2.47;;
31182;SDS011;17813;0.000;0.000;2023-03-19T17:34:03;3.30;;;2.57;;
31182;SDS011;17813;0.000;0.000;2023-03-19T17:36:36;3.00;;;2.50;;
31182;SDS011;17813;0.000;0.000;2023-03-19T17:39:04;4.53;;;2.70;;